sensor_id;sensor_type;location;lat;lon;timestamp;temperature;humidity
4757;DHT22;2392;52.578;13.426;2022-10-03T00:00:27;11.50;99.90
4757;DHT22;2392;52.578;13.426;2022-10-03T00:03:18;11.50;99.90
4757;DHT22;2392;52.578;13.426;2022-10-03T00:06:05;11.60;99.90
4757;DHT22;2392;52.578;13.426;2022-10-03T00:09:10;11.60;99.90
4757;DHT22;2392;52.578;13.426;2022-10-03T00:11:50;11.60;99.90
4757;DHT22;2392;52.578;13.426;2022-10-03T00:14:27;11.60;99.90
4757;DHT22;2392;52.578;13.426;2022-10-03T00:17:04;11.60;99.90
4757;DHT22;2392;52.578;13.426;2022-10-03T00:19:42;11.60;99.90
4757;DHT22;2392;52.578;13.426;2022-10-03T00:22:17;11.60;99.90
4757;DHT22;2392;52.578;13.426;2022-10-03T00:24:59;11.60;99.90
4757;DHT22;2392;52.578;13.426;2022-10-03T00:27:32;11.60;99.90
4757;DHT22;2392;52.578;13.426;2022-10-03T00:30:10;11.60;99.90
4757;DHT22;2392;52.578;13.426;2022-10-03T00:35:54;11.50;99.90
4757;DHT22;2392;52.578;13.426;2022-10-03T00:47:59;11.50;99.90
4757;DHT22;2392;52.578;13.426;2022-10-03T00:50:44;11.50;99.90
4757;DHT22;2392;52.578;13.426;2022-10-03T00:53:35;11.50;99.90
4757;DHT22;2392;52.578;13.426;2022-10-03T00:56:20;11.50;99.90
4757;DHT22;2392;52.578;13.426;2022-10-03T00:59:00;11.50;99.90
4757;DHT22;2392;52.578;13.426;2022-10-03T01:01:35;11.50;99.90
4757;DHT22;2392;52.578;13.426;2022-10-03T01:04:28;11.50;99.90
4757;DHT22;2392;52.578;13.426;2022-10-03T01:07:05;11.50;99.90
4757;DHT22;2392;52.578;13.426;2022-10-03T01:09:48;11.50;99.90
4757;DHT22;2392;52.578;13.426;2022-10-03T01:12:32;11.40;99.90
4757;DHT22;2392;52.578;13.426;2022-10-03T01:15:13;11.40;99.90
4757;DHT22;2392;52.578;13.426;2022-10-03T01:17:59;11.40;99.90
4757;DHT22;2392;52.578;13.426;2022-10-03T01:20:39;11.50;99.90
4757;DHT22;2392;52.578;13.426;2022-10-03T01:23:41;11.50;99.90
4757;DHT22;2392;52.578;13.426;2022-10-03T01:26:34;11.50;99.90
4757;DHT22;2392;52.578;13.426;2022-10-03T01:29:08;11.50;99.90
4757;DHT22;2392;52.578;13.426;2022-10-03T01:31:59;11.50;99.90
4757;DHT22;2392;52.578;13.426;2022-10-03T01:34:33;11.60;99.90
4757;DHT22;2392;52.578;13.426;2022-10-03T01:37:07;11.60;99.90
4757;DHT22;2392;52.578;13.426;2022-10-03T01:39:41;11.60;99.90
4757;DHT22;2392;52.578;13.426;2022-10-03T01:42:15;11.70;99.90
4757;DHT22;2392;52.578;13.426;2022-10-03T01:45:02;11.70;99.90
4757;DHT22;2392;52.578;13.426;2022-10-03T01:47:43;11.70;99.90
4757;DHT22;2392;52.578;13.426;2022-10-03T01:50:20;11.70;99.90
4757;DHT22;2392;52.578;13.426;2022-10-03T01:52:53;11.70;99.90
4757;DHT22;2392;52.578;13.426;2022-10-03T01:55:28;11.70;99.90
4757;DHT22;2392;52.578;13.426;2022-10-03T01:58:00;11.70;99.90
4757;DHT22;2392;52.578;13.426;2022-10-03T02:00:34;11.70;99.90
4757;DHT22;2392;52.578;13.426;2022-10-03T02:03:13;11.70;99.90
4757;DHT22;2392;52.578;13.426;2022-10-03T02:05:48;11.80;99.90
4757;DHT22;2392;52.578;13.426;2022-10-03T02:08:25;11.80;99.90
4757;DHT22;2392;52.578;13.426;2022-10-03T02:10:59;11.80;99.90
4757;DHT22;2392;52.578;13.426;2022-10-03T02:13:36;11.80;99.90
4757;DHT22;2392;52.578;13.426;2022-10-03T02:16:10;11.80;99.90
4757;DHT22;2392;52.578;13.426;2022-10-03T02:18:45;11.80;99.90
4757;DHT22;2392;52.578;13.426;2022-10-03T02:21:17;11.80;99.90
4757;DHT22;2392;52.578;13.426;2022-10-03T02:23:47;11.80;99.90
4757;DHT22;2392;52.578;13.426;2022-10-03T02:26:33;11.80;99.90
4757;DHT22;2392;52.578;13.426;2022-10-03T02:29:50;11.90;99.90
4757;DHT22;2392;52.578;13.426;2022-10-03T02:35:27;11.90;99.90
4757;DHT22;2392;52.578;13.426;2022-10-03T02:38:33;11.90;99.90
4757;DHT22;2392;52.578;13.426;2022-10-03T02:41:15;11.90;99.90
4757;DHT22;2392;52.578;13.426;2022-10-03T02:44:08;11.90;99.90
4757;DHT22;2392;52.578;13.426;2022-10-03T02:53:14;11.90;99.90
4757;DHT22;2392;52.578;13.426;2022-10-03T02:56:09;11.90;99.90
4757;DHT22;2392;52.578;13.426;2022-10-03T02:58:59;11.90;99.90
4757;DHT22;2392;52.578;13.426;2022-10-03T03:01:57;11.90;99.90
4757;DHT22;2392;52.578;13.426;2022-10-03T03:07:34;11.90;99.90
4757;DHT22;2392;52.578;13.426;2022-10-03T03:10:31;11.90;99.90
4757;DHT22;2392;52.578;13.426;2022-10-03T03:13:30;11.90;99.90
4757;DHT22;2392;52.578;13.426;2022-10-03T03:16:31;11.90;99.90
4757;DHT22;2392;52.578;13.426;2022-10-03T03:19:20;11.90;99.90
4757;DHT22;2392;52.578;13.426;2022-10-03T03:21:54;11.90;99.90
4757;DHT22;2392;52.578;13.426;2022-10-03T03:24:50;11.90;99.90
4757;DHT22;2392;52.578;13.426;2022-10-03T03:27:42;11.90;99.90
4757;DHT22;2392;52.578;13.426;2022-10-03T03:30:15;11.90;99.90
4757;DHT22;2392;52.578;13.426;2022-10-03T03:32:52;11.90;99.90
4757;DHT22;2392;52.578;13.426;2022-10-03T03:35:30;11.90;99.90
4757;DHT22;2392;52.578;13.426;2022-10-03T03:38:10;11.90;99.90
4757;DHT22;2392;52.578;13.426;2022-10-03T03:40:44;12.00;99.90
4757;DHT22;2392;52.578;13.426;2022-10-03T03:46:13;11.90;99.90
4757;DHT22;2392;52.578;13.426;2022-10-03T03:49:08;11.90;99.90
4757;DHT22;2392;52.578;13.426;2022-10-03T03:51:46;11.90;99.90
4757;DHT22;2392;52.578;13.426;2022-10-03T03:54:55;11.90;99.90
4757;DHT22;2392;52.578;13.426;2022-10-03T04:00:39;11.90;99.90
4757;DHT22;2392;52.578;13.426;2022-10-03T04:03:23;12.00;99.90
4757;DHT22;2392;52.578;13.426;2022-10-03T04:06:06;12.00;99.90
4757;DHT22;2392;52.578;13.426;2022-10-03T04:09:15;11.90;99.90
4757;DHT22;2392;52.578;13.426;2022-10-03T04:11:56;11.90;99.90
4757;DHT22;2392;52.578;13.426;2022-10-03T04:14:59;11.90;99.90
4757;DHT22;2392;52.578;13.426;2022-10-03T04:17:43;11.90;99.90
4757;DHT22;2392;52.578;13.426;2022-10-03T04:23:37;11.90;99.90
4757;DHT22;2392;52.578;13.426;2022-10-03T04:26:28;11.90;99.90
4757;DHT22;2392;52.578;13.426;2022-10-03T04:29:37;11.80;99.90
4757;DHT22;2392;52.578;13.426;2022-10-03T04:32:17;11.80;99.90
4757;DHT22;2392;52.578;13.426;2022-10-03T04:35:03;11.90;99.90
4757;DHT22;2392;52.578;13.426;2022-10-03T04:37:39;11.90;99.90
4757;DHT22;2392;52.578;13.426;2022-10-03T04:40:22;11.90;99.90
4757;DHT22;2392;52.578;13.426;2022-10-03T04:42:59;11.90;99.90
4757;DHT22;2392;52.578;13.426;2022-10-03T04:45:46;11.90;99.90
4757;DHT22;2392;52.578;13.426;2022-10-03T04:48:28;11.90;99.90
4757;DHT22;2392;52.578;13.426;2022-10-03T04:51:06;11.90;99.90
4757;DHT22;2392;52.578;13.426;2022-10-03T04:53:43;11.90;99.90
4757;DHT22;2392;52.578;13.426;2022-10-03T04:56:39;11.90;99.90
4757;DHT22;2392;52.578;13.426;2022-10-03T04:59:21;11.90;99.90
4757;DHT22;2392;52.578;13.426;2022-10-03T05:01:55;12.00;99.90
4757;DHT22;2392;52.578;13.426;2022-10-03T05:04:29;12.00;99.90
4757;DHT22;2392;52.578;13.426;2022-10-03T05:07:06;12.00;99.90
4757;DHT22;2392;52.578;13.426;2022-10-03T05:09:44;12.00;99.90
4757;DHT22;2392;52.578;13.426;2022-10-03T05:12:17;12.00;99.90
4757;DHT22;2392;52.578;13.426;2022-10-03T05:15:04;11.90;99.90
4757;DHT22;2392;52.578;13.426;2022-10-03T05:17:45;11.90;99.90
4757;DHT22;2392;52.578;13.426;2022-10-03T05:20:36;11.90;99.90
4757;DHT22;2392;52.578;13.426;2022-10-03T05:23:13;11.90;99.90
4757;DHT22;2392;52.578;13.426;2022-10-03T05:25:53;12.00;99.90
4757;DHT22;2392;52.578;13.426;2022-10-03T05:28:32;12.00;99.90
4757;DHT22;2392;52.578;13.426;2022-10-03T05:31:15;12.00;99.90
4757;DHT22;2392;52.578;13.426;2022-10-03T05:33:53;12.00;99.90
4757;DHT22;2392;52.578;13.426;2022-10-03T05:36:32;12.00;99.90
4757;DHT22;2392;52.578;13.426;2022-10-03T05:39:38;12.00;99.90
4757;DHT22;2392;52.578;13.426;2022-10-03T05:42:37;12.00;99.90
4757;DHT22;2392;52.578;13.426;2022-10-03T05:45:20;12.00;99.90
4757;DHT22;2392;52.578;13.426;2022-10-03T05:47:51;12.00;99.90
4757;DHT22;2392;52.578;13.426;2022-10-03T05:50:38;12.00;99.90
4757;DHT22;2392;52.578;13.426;2022-10-03T05:56:07;12.00;99.90
4757;DHT22;2392;52.578;13.426;2022-10-03T06:01:59;12.00;99.90
4757;DHT22;2392;52.578;13.426;2022-10-03T06:04:49;11.90;99.90
4757;DHT22;2392;52.578;13.426;2022-10-03T06:07:24;11.90;99.90
4757;DHT22;2392;52.578;13.426;2022-10-03T06:10:26;11.90;99.90
4757;DHT22;2392;52.578;13.426;2022-10-03T06:13:10;11.90;99.90
4757;DHT22;2392;52.578;13.426;2022-10-03T06:15:50;12.00;99.90
4757;DHT22;2392;52.578;13.426;2022-10-03T06:18:42;12.00;99.90
4757;DHT22;2392;52.578;13.426;2022-10-03T06:24:35;12.10;99.90
4757;DHT22;2392;52.578;13.426;2022-10-03T06:27:40;12.20;99.90
4757;DHT22;2392;52.578;13.426;2022-10-03T06:30:21;12.20;99.90
4757;DHT22;2392;52.578;13.426;2022-10-03T06:45:56;12.30;99.90
4757;DHT22;2392;52.578;13.426;2022-10-03T06:48:42;12.30;99.90
4757;DHT22;2392;52.578;13.426;2022-10-03T06:51:43;12.30;99.90
4757;DHT22;2392;52.578;13.426;2022-10-03T06:57:27;12.30;99.90
4757;DHT22;2392;52.578;13.426;2022-10-03T07:00:06;12.40;99.90
4757;DHT22;2392;52.578;13.426;2022-10-03T07:03:08;12.40;99.90
4757;DHT22;2392;52.578;13.426;2022-10-03T07:06:27;12.50;99.90
4757;DHT22;2392;52.578;13.426;2022-10-03T07:15:20;12.50;99.90
4757;DHT22;2392;52.578;13.426;2022-10-03T07:21:27;12.60;99.90
4757;DHT22;2392;52.578;13.426;2022-10-03T07:24:21;12.70;99.90
4757;DHT22;2392;52.578;13.426;2022-10-03T07:27:23;12.70;99.90
4757;DHT22;2392;52.578;13.426;2022-10-03T07:30:08;12.70;99.90
4757;DHT22;2392;52.578;13.426;2022-10-03T07:35:43;12.80;99.90
4757;DHT22;2392;52.578;13.426;2022-10-03T07:38:48;12.80;99.90
4757;DHT22;2392;52.578;13.426;2022-10-03T07:47:43;12.80;99.90
4757;DHT22;2392;52.578;13.426;2022-10-03T07:50:54;12.80;99.90
4757;DHT22;2392;52.578;13.426;2022-10-03T07:53:52;12.80;99.90
4757;DHT22;2392;52.578;13.426;2022-10-03T07:56:49;12.90;99.90
4757;DHT22;2392;52.578;13.426;2022-10-03T08:02:59;12.90;99.90
4757;DHT22;2392;52.578;13.426;2022-10-03T08:05:42;12.90;99.90
4757;DHT22;2392;52.578;13.426;2022-10-03T08:08:40;13.00;99.90
4757;DHT22;2392;52.578;13.426;2022-10-03T08:11:27;13.00;99.90
4757;DHT22;2392;52.578;13.426;2022-10-03T08:14:08;13.00;99.90
4757;DHT22;2392;52.578;13.426;2022-10-03T08:20:21;13.10;99.90
4757;DHT22;2392;52.578;13.426;2022-10-03T08:23:12;13.20;99.90
4757;DHT22;2392;52.578;13.426;2022-10-03T08:25:55;13.30;99.90
4757;DHT22;2392;52.578;13.426;2022-10-03T08:28:39;13.30;99.90
4757;DHT22;2392;52.578;13.426;2022-10-03T08:31:20;13.30;99.90
4757;DHT22;2392;52.578;13.426;2022-10-03T08:37:06;13.40;99.90
4757;DHT22;2392;52.578;13.426;2022-10-03T08:43:31;13.40;99.90
4757;DHT22;2392;52.578;13.426;2022-10-03T08:46:19;13.40;99.90
4757;DHT22;2392;52.578;13.426;2022-10-03T08:51:57;13.50;99.90
4757;DHT22;2392;52.578;13.426;2022-10-03T08:54:55;13.50;99.90
4757;DHT22;2392;52.578;13.426;2022-10-03T09:00:55;13.60;99.90
4757;DHT22;2392;52.578;13.426;2022-10-03T09:06:58;14.00;99.90
4757;DHT22;2392;52.578;13.426;2022-10-03T09:10:07;14.10;99.90
4757;DHT22;2392;52.578;13.426;2022-10-03T09:13:11;14.10;99.90
4757;DHT22;2392;52.578;13.426;2022-10-03T09:22:08;14.10;99.90
4757;DHT22;2392;52.578;13.426;2022-10-03T09:31:04;14.20;99.90
4757;DHT22;2392;52.578;13.426;2022-10-03T09:34:00;14.40;99.90
4757;DHT22;2392;52.578;13.426;2022-10-03T09:43:07;14.90;99.90
4757;DHT22;2392;52.578;13.426;2022-10-03T09:49:00;15.60;99.90
4757;DHT22;2392;52.578;13.426;2022-10-03T09:51:46;16.00;99.90
4757;DHT22;2392;52.578;13.426;2022-10-03T09:54:38;16.20;99.90
4757;DHT22;2392;52.578;13.426;2022-10-03T09:57:44;16.20;99.90
4757;DHT22;2392;52.578;13.426;2022-10-03T10:00:25;16.00;99.90
4757;DHT22;2392;52.578;13.426;2022-10-03T10:15:46;15.10;99.90
4757;DHT22;2392;52.578;13.426;2022-10-03T10:21:51;15.70;99.90
4757;DHT22;2392;52.578;13.426;2022-10-03T10:28:26;16.10;99.90
4757;DHT22;2392;52.578;13.426;2022-10-03T10:31:21;16.50;99.90
4757;DHT22;2392;52.578;13.426;2022-10-03T10:37:52;16.80;99.90
4757;DHT22;2392;52.578;13.426;2022-10-03T10:40:40;17.50;99.90
4757;DHT22;2392;52.578;13.426;2022-10-03T10:50:04;19.60;99.90
4757;DHT22;2392;52.578;13.426;2022-10-03T11:08:31;21.90;99.90
4757;DHT22;2392;52.578;13.426;2022-10-03T11:14:33;20.00;99.90
4757;DHT22;2392;52.578;13.426;2022-10-03T11:17:27;19.10;99.90
4757;DHT22;2392;52.578;13.426;2022-10-03T11:23:42;17.90;99.90
4757;DHT22;2392;52.578;13.426;2022-10-03T11:26:56;17.50;99.90
4757;DHT22;2392;52.578;13.426;2022-10-03T11:33:50;17.10;99.90
4757;DHT22;2392;52.578;13.426;2022-10-03T11:39:19;17.20;99.90
4757;DHT22;2392;52.578;13.426;2022-10-03T11:41:57;17.00;99.90
4757;DHT22;2392;52.578;13.426;2022-10-03T11:44:30;16.60;99.90
4757;DHT22;2392;52.578;13.426;2022-10-03T11:47:22;16.30;99.90
4757;DHT22;2392;52.578;13.426;2022-10-03T11:50:12;16.20;99.90
4757;DHT22;2392;52.578;13.426;2022-10-03T11:52:54;16.30;99.90
4757;DHT22;2392;52.578;13.426;2022-10-03T11:55:30;16.40;99.90
4757;DHT22;2392;52.578;13.426;2022-10-03T11:58:13;16.50;99.90
4757;DHT22;2392;52.578;13.426;2022-10-03T12:00:44;16.50;99.90
4757;DHT22;2392;52.578;13.426;2022-10-03T12:03:16;16.50;99.90
4757;DHT22;2392;52.578;13.426;2022-10-03T12:05:49;16.60;99.90
4757;DHT22;2392;52.578;13.426;2022-10-03T12:08:41;16.60;99.90
4757;DHT22;2392;52.578;13.426;2022-10-03T12:11:23;16.60;99.90
4757;DHT22;2392;52.578;13.426;2022-10-03T12:14:12;16.70;99.90
4757;DHT22;2392;52.578;13.426;2022-10-03T12:16:56;16.70;99.90
4757;DHT22;2392;52.578;13.426;2022-10-03T12:19:32;16.60;99.90
4757;DHT22;2392;52.578;13.426;2022-10-03T12:22:08;16.60;99.90
4757;DHT22;2392;52.578;13.426;2022-10-03T12:24:40;16.60;99.90
4757;DHT22;2392;52.578;13.426;2022-10-03T12:27:15;16.60;99.90
4757;DHT22;2392;52.578;13.426;2022-10-03T12:29:55;16.70;99.90
4757;DHT22;2392;52.578;13.426;2022-10-03T12:32:33;16.80;99.90
4757;DHT22;2392;52.578;13.426;2022-10-03T12:35:28;16.90;99.90
4757;DHT22;2392;52.578;13.426;2022-10-03T12:38:14;17.00;99.90
4757;DHT22;2392;52.578;13.426;2022-10-03T12:40:46;17.10;99.90
4757;DHT22;2392;52.578;13.426;2022-10-03T12:43:32;17.20;99.90
4757;DHT22;2392;52.578;13.426;2022-10-03T12:46:10;17.20;99.90
4757;DHT22;2392;52.578;13.426;2022-10-03T12:48:44;17.10;99.90
4757;DHT22;2392;52.578;13.426;2022-10-03T12:51:25;16.90;99.90
4757;DHT22;2392;52.578;13.426;2022-10-03T12:54:08;16.70;99.90
4757;DHT22;2392;52.578;13.426;2022-10-03T12:56:44;16.70;99.90
4757;DHT22;2392;52.578;13.426;2022-10-03T12:59:21;16.60;99.90
4757;DHT22;2392;52.578;13.426;2022-10-03T13:02:08;16.60;99.90
4757;DHT22;2392;52.578;13.426;2022-10-03T13:04:44;16.70;99.90
4757;DHT22;2392;52.578;13.426;2022-10-03T13:07:22;16.70;99.90
4757;DHT22;2392;52.578;13.426;2022-10-03T13:10:00;16.60;99.90
4757;DHT22;2392;52.578;13.426;2022-10-03T13:12:35;16.60;99.90
4757;DHT22;2392;52.578;13.426;2022-10-03T13:18:34;16.60;99.90
4757;DHT22;2392;52.578;13.426;2022-10-03T13:21:09;16.70;99.90
4757;DHT22;2392;52.578;13.426;2022-10-03T13:23:43;16.80;99.90
4757;DHT22;2392;52.578;13.426;2022-10-03T13:26:16;16.80;99.90
4757;DHT22;2392;52.578;13.426;2022-10-03T13:29:12;16.80;99.90
4757;DHT22;2392;52.578;13.426;2022-10-03T13:32:06;16.70;99.90
4757;DHT22;2392;52.578;13.426;2022-10-03T13:34:54;16.70;99.90
4757;DHT22;2392;52.578;13.426;2022-10-03T13:37:28;16.70;99.90
4757;DHT22;2392;52.578;13.426;2022-10-03T13:40:05;16.70;99.90
4757;DHT22;2392;52.578;13.426;2022-10-03T13:42:38;16.70;99.90
4757;DHT22;2392;52.578;13.426;2022-10-03T13:45:12;16.70;99.90
4757;DHT22;2392;52.578;13.426;2022-10-03T13:47:44;16.70;99.90
4757;DHT22;2392;52.578;13.426;2022-10-03T13:50:17;16.70;99.90
4757;DHT22;2392;52.578;13.426;2022-10-03T13:52:49;16.70;99.90
4757;DHT22;2392;52.578;13.426;2022-10-03T13:55:24;16.60;99.90
4757;DHT22;2392;52.578;13.426;2022-10-03T13:58:04;16.70;99.90
4757;DHT22;2392;52.578;13.426;2022-10-03T14:00:49;16.60;99.90
4757;DHT22;2392;52.578;13.426;2022-10-03T14:03:24;16.60;99.90
4757;DHT22;2392;52.578;13.426;2022-10-03T14:06:08;16.70;99.90
4757;DHT22;2392;52.578;13.426;2022-10-03T14:09:01;16.70;99.90
4757;DHT22;2392;52.578;13.426;2022-10-03T14:11:38;16.80;99.90
4757;DHT22;2392;52.578;13.426;2022-10-03T14:14:32;16.80;99.90
4757;DHT22;2392;52.578;13.426;2022-10-03T14:17:07;16.70;99.90
4757;DHT22;2392;52.578;13.426;2022-10-03T14:19:45;16.80;99.90
4757;DHT22;2392;52.578;13.426;2022-10-03T14:22:53;16.80;99.90
4757;DHT22;2392;52.578;13.426;2022-10-03T14:25:25;16.70;99.90
4757;DHT22;2392;52.578;13.426;2022-10-03T14:27:55;16.70;99.90
4757;DHT22;2392;52.578;13.426;2022-10-03T14:30:27;16.60;99.90
4757;DHT22;2392;52.578;13.426;2022-10-03T14:33:05;16.40;99.90
4757;DHT22;2392;52.578;13.426;2022-10-03T14:35:38;16.30;99.90
4757;DHT22;2392;52.578;13.426;2022-10-03T14:41:27;16.10;99.90
4757;DHT22;2392;52.578;13.426;2022-10-03T14:44:01;16.20;99.90
4757;DHT22;2392;52.578;13.426;2022-10-03T14:46:34;16.20;99.90
4757;DHT22;2392;52.578;13.426;2022-10-03T14:49:05;16.20;99.90
4757;DHT22;2392;52.578;13.426;2022-10-03T14:51:37;16.30;99.90
4757;DHT22;2392;52.578;13.426;2022-10-03T14:54:15;16.30;99.90
4757;DHT22;2392;52.578;13.426;2022-10-03T14:56:45;16.30;99.90
4757;DHT22;2392;52.578;13.426;2022-10-03T14:59:17;16.30;99.90
4757;DHT22;2392;52.578;13.426;2022-10-03T15:01:51;16.30;99.90
4757;DHT22;2392;52.578;13.426;2022-10-03T15:04:30;16.30;99.90
4757;DHT22;2392;52.578;13.426;2022-10-03T15:06:58;16.20;99.90
4757;DHT22;2392;52.578;13.426;2022-10-03T15:09:41;16.20;99.90
4757;DHT22;2392;52.578;13.426;2022-10-03T15:12:13;16.20;99.90
4757;DHT22;2392;52.578;13.426;2022-10-03T15:14:45;16.20;99.90
4757;DHT22;2392;52.578;13.426;2022-10-03T15:17:18;16.20;99.90
4757;DHT22;2392;52.578;13.426;2022-10-03T15:19:49;16.20;99.90
4757;DHT22;2392;52.578;13.426;2022-10-03T15:22:29;16.20;99.90
4757;DHT22;2392;52.578;13.426;2022-10-03T15:25:03;16.20;99.90
4757;DHT22;2392;52.578;13.426;2022-10-03T15:27:31;16.20;99.90
4757;DHT22;2392;52.578;13.426;2022-10-03T15:30:02;16.20;99.90
4757;DHT22;2392;52.578;13.426;2022-10-03T15:32:34;16.20;99.90
4757;DHT22;2392;52.578;13.426;2022-10-03T15:35:02;16.10;99.90
4757;DHT22;2392;52.578;13.426;2022-10-03T15:37:31;16.10;99.90
4757;DHT22;2392;52.578;13.426;2022-10-03T15:40:06;16.10;99.90
4757;DHT22;2392;52.578;13.426;2022-10-03T15:42:46;16.00;99.90
4757;DHT22;2392;52.578;13.426;2022-10-03T15:45:22;16.00;99.90
4757;DHT22;2392;52.578;13.426;2022-10-03T15:47:50;16.00;99.90
4757;DHT22;2392;52.578;13.426;2022-10-03T15:50:21;16.00;99.90
4757;DHT22;2392;52.578;13.426;2022-10-03T15:52:51;15.90;99.90
4757;DHT22;2392;52.578;13.426;2022-10-03T15:55:23;15.90;99.90
4757;DHT22;2392;52.578;13.426;2022-10-03T15:57:56;15.90;99.90
4757;DHT22;2392;52.578;13.426;2022-10-03T16:00:27;15.80;99.90
4757;DHT22;2392;52.578;13.426;2022-10-03T16:03:07;15.80;99.90
4757;DHT22;2392;52.578;13.426;2022-10-03T16:05:35;15.80;99.90
4757;DHT22;2392;52.578;13.426;2022-10-03T16:08:07;15.70;99.90
4757;DHT22;2392;52.578;13.426;2022-10-03T16:10:39;15.70;99.90
4757;DHT22;2392;52.578;13.426;2022-10-03T16:13:19;15.70;99.90
4757;DHT22;2392;52.578;13.426;2022-10-03T16:16:01;15.70;99.90
4757;DHT22;2392;52.578;13.426;2022-10-03T16:18:45;15.70;99.90
4757;DHT22;2392;52.578;13.426;2022-10-03T16:21:24;15.60;99.90
4757;DHT22;2392;52.578;13.426;2022-10-03T16:23:55;15.60;99.90
4757;DHT22;2392;52.578;13.426;2022-10-03T16:26:26;15.60;99.90
4757;DHT22;2392;52.578;13.426;2022-10-03T16:29:01;15.60;99.90
4757;DHT22;2392;52.578;13.426;2022-10-03T16:31:36;15.60;99.90
4757;DHT22;2392;52.578;13.426;2022-10-03T16:34:11;15.60;99.90
4757;DHT22;2392;52.578;13.426;2022-10-03T16:36:42;15.60;99.90
4757;DHT22;2392;52.578;13.426;2022-10-03T16:39:18;15.60;99.90
4757;DHT22;2392;52.578;13.426;2022-10-03T16:44:25;15.50;99.90
4757;DHT22;2392;52.578;13.426;2022-10-03T16:46:56;15.50;99.90
4757;DHT22;2392;52.578;13.426;2022-10-03T16:49:36;15.50;99.90
4757;DHT22;2392;52.578;13.426;2022-10-03T16:52:24;15.40;99.90
4757;DHT22;2392;52.578;13.426;2022-10-03T16:55:00;15.40;99.90
4757;DHT22;2392;52.578;13.426;2022-10-03T16:57:35;15.40;99.90
4757;DHT22;2392;52.578;13.426;2022-10-03T17:00:12;15.30;99.90
4757;DHT22;2392;52.578;13.426;2022-10-03T17:02:40;15.30;99.90
4757;DHT22;2392;52.578;13.426;2022-10-03T17:05:08;15.30;99.90
4757;DHT22;2392;52.578;13.426;2022-10-03T17:07:40;15.20;99.90
4757;DHT22;2392;52.578;13.426;2022-10-03T17:10:24;15.20;99.90
4757;DHT22;2392;52.578;13.426;2022-10-03T17:12:57;15.20;99.90
4757;DHT22;2392;52.578;13.426;2022-10-03T17:15:28;15.20;99.90
4757;DHT22;2392;52.578;13.426;2022-10-03T17:18:03;15.20;99.90
4757;DHT22;2392;52.578;13.426;2022-10-03T17:20:38;15.10;99.90
4757;DHT22;2392;52.578;13.426;2022-10-03T17:23:20;15.10;99.90
4757;DHT22;2392;52.578;13.426;2022-10-03T17:25:59;15.00;99.90
4757;DHT22;2392;52.578;13.426;2022-10-03T17:28:37;15.00;99.90
4757;DHT22;2392;52.578;13.426;2022-10-03T17:31:20;15.00;99.90
4757;DHT22;2392;52.578;13.426;2022-10-03T17:33:55;14.90;99.90
4757;DHT22;2392;52.578;13.426;2022-10-03T17:36:54;14.90;99.90
4757;DHT22;2392;52.578;13.426;2022-10-03T17:39:36;14.80;99.90
4757;DHT22;2392;52.578;13.426;2022-10-03T17:42:11;14.80;99.90
4757;DHT22;2392;52.578;13.426;2022-10-03T17:44:53;14.80;99.90
4757;DHT22;2392;52.578;13.426;2022-10-03T17:47:26;14.80;99.90
4757;DHT22;2392;52.578;13.426;2022-10-03T17:50:03;14.70;99.90
4757;DHT22;2392;52.578;13.426;2022-10-03T17:52:31;14.70;99.90
4757;DHT22;2392;52.578;13.426;2022-10-03T17:55:02;14.60;99.90
4757;DHT22;2392;52.578;13.426;2022-10-03T17:57:32;14.60;99.90
4757;DHT22;2392;52.578;13.426;2022-10-03T18:00:06;14.60;99.90
4757;DHT22;2392;52.578;13.426;2022-10-03T18:02:42;14.50;99.90
4757;DHT22;2392;52.578;13.426;2022-10-03T18:05:14;14.50;99.90
4757;DHT22;2392;52.578;13.426;2022-10-03T18:07:44;14.50;99.90
4757;DHT22;2392;52.578;13.426;2022-10-03T18:10:21;14.50;99.90
4757;DHT22;2392;52.578;13.426;2022-10-03T18:12:50;14.50;99.90
4757;DHT22;2392;52.578;13.426;2022-10-03T18:15:37;14.50;99.90
4757;DHT22;2392;52.578;13.426;2022-10-03T18:21:13;14.50;99.90
4757;DHT22;2392;52.578;13.426;2022-10-03T18:23:50;14.50;99.90
4757;DHT22;2392;52.578;13.426;2022-10-03T18:26:27;14.50;99.90
4757;DHT22;2392;52.578;13.426;2022-10-03T18:29:11;14.50;99.90
4757;DHT22;2392;52.578;13.426;2022-10-03T18:31:43;14.50;99.90
4757;DHT22;2392;52.578;13.426;2022-10-03T18:34:17;14.50;99.90
4757;DHT22;2392;52.578;13.426;2022-10-03T18:36:47;14.50;99.90
4757;DHT22;2392;52.578;13.426;2022-10-03T18:39:17;14.40;99.90
4757;DHT22;2392;52.578;13.426;2022-10-03T18:41:48;14.40;99.90
4757;DHT22;2392;52.578;13.426;2022-10-03T18:44:18;14.40;99.90
4757;DHT22;2392;52.578;13.426;2022-10-03T18:46:47;14.40;99.90
4757;DHT22;2392;52.578;13.426;2022-10-03T18:49:21;14.30;99.90
4757;DHT22;2392;52.578;13.426;2022-10-03T18:51:54;14.30;99.90
4757;DHT22;2392;52.578;13.426;2022-10-03T18:54:29;14.30;99.90
4757;DHT22;2392;52.578;13.426;2022-10-03T18:57:07;14.30;99.90
4757;DHT22;2392;52.578;13.426;2022-10-03T18:59:42;14.20;99.90
4757;DHT22;2392;52.578;13.426;2022-10-03T19:02:17;14.20;99.90
4757;DHT22;2392;52.578;13.426;2022-10-03T19:04:51;14.20;99.90
4757;DHT22;2392;52.578;13.426;2022-10-03T19:07:20;14.20;99.90
4757;DHT22;2392;52.578;13.426;2022-10-03T19:10:10;14.20;99.90
4757;DHT22;2392;52.578;13.426;2022-10-03T19:12:46;14.20;99.90
4757;DHT22;2392;52.578;13.426;2022-10-03T19:15:18;14.20;99.90
4757;DHT22;2392;52.578;13.426;2022-10-03T19:18:02;14.20;99.90
4757;DHT22;2392;52.578;13.426;2022-10-03T19:20:35;14.10;99.90
4757;DHT22;2392;52.578;13.426;2022-10-03T19:23:08;14.10;99.90
4757;DHT22;2392;52.578;13.426;2022-10-03T19:25:38;14.10;99.90
4757;DHT22;2392;52.578;13.426;2022-10-03T19:28:13;14.10;99.90
4757;DHT22;2392;52.578;13.426;2022-10-03T19:30:42;14.00;99.90
4757;DHT22;2392;52.578;13.426;2022-10-03T19:33:16;14.00;99.90
4757;DHT22;2392;52.578;13.426;2022-10-03T19:35:46;14.00;99.90
4757;DHT22;2392;52.578;13.426;2022-10-03T19:38:17;14.00;99.90
4757;DHT22;2392;52.578;13.426;2022-10-03T19:40:53;13.90;99.90
4757;DHT22;2392;52.578;13.426;2022-10-03T19:43:33;13.90;99.90
4757;DHT22;2392;52.578;13.426;2022-10-03T19:46:14;13.90;99.90
4757;DHT22;2392;52.578;13.426;2022-10-03T19:48:47;13.90;99.90
4757;DHT22;2392;52.578;13.426;2022-10-03T19:51:16;13.90;99.90
4757;DHT22;2392;52.578;13.426;2022-10-03T19:53:44;13.90;99.90
4757;DHT22;2392;52.578;13.426;2022-10-03T19:56:13;13.90;99.90
4757;DHT22;2392;52.578;13.426;2022-10-03T19:58:43;13.90;99.90
4757;DHT22;2392;52.578;13.426;2022-10-03T20:01:10;13.90;99.90
4757;DHT22;2392;52.578;13.426;2022-10-03T20:03:41;13.90;99.90
4757;DHT22;2392;52.578;13.426;2022-10-03T20:06:17;13.90;99.90
4757;DHT22;2392;52.578;13.426;2022-10-03T20:08:46;13.90;99.90
4757;DHT22;2392;52.578;13.426;2022-10-03T20:11:31;13.90;99.90
4757;DHT22;2392;52.578;13.426;2022-10-03T20:14:01;13.90;99.90
4757;DHT22;2392;52.578;13.426;2022-10-03T20:16:30;13.90;99.90
4757;DHT22;2392;52.578;13.426;2022-10-03T20:19:04;13.90;99.90
4757;DHT22;2392;52.578;13.426;2022-10-03T20:21:34;13.90;99.90
4757;DHT22;2392;52.578;13.426;2022-10-03T20:24:07;13.90;99.90